createdAt,value
2022-11-07T00:00:02.083Z,9
2022-11-07T00:01:02.312Z,9
2022-11-07T00:02:02.272Z,9
2022-11-07T00:03:02.361Z,9
2022-11-07T00:04:01.351Z,9
2022-11-07T00:05:02.312Z,9
2022-11-07T00:06:02.276Z,9
2022-11-07T00:07:02.255Z,9
2022-11-07T00:08:02.195Z,9
2022-11-07T00:09:02.156Z,9.1
2022-11-07T00:10:02.074Z,9.1
2022-11-07T00:11:02.010Z,9.1
2022-11-07T00:12:01.994Z,9
2022-11-07T00:13:01.899Z,9
2022-11-07T00:14:01.835Z,9
2022-11-07T00:15:01.774Z,9
2022-11-07T00:16:01.784Z,9
2022-11-07T00:17:01.738Z,9
2022-11-07T00:18:01.710Z,9
2022-11-07T00:19:01.601Z,9
2022-11-07T00:20:01.557Z,9.1
2022-11-07T00:21:01.422Z,9
2022-11-07T00:22:01.388Z,9
2022-11-07T00:23:02.323Z,9
2022-11-07T00:24:02.239Z,9
2022-11-07T00:25:02.218Z,9.1
2022-11-07T00:26:02.149Z,9
2022-11-07T00:27:02.250Z,9
2022-11-07T00:28:02.291Z,9
2022-11-07T00:29:02.269Z,9
2022-11-07T00:30:02.172Z,9
2022-11-07T00:31:01.471Z,9.1
2022-11-07T00:32:01.439Z,9.1
2022-11-07T00:33:01.344Z,9.1
2022-11-07T00:34:02.751Z,9.1
2022-11-07T00:35:01.613Z,9.1
2022-11-07T00:36:01.556Z,9.1
2022-11-07T00:37:01.460Z,9
2022-11-07T00:38:01.441Z,9
2022-11-07T00:39:01.348Z,9
2022-11-07T00:40:02.312Z,9
2022-11-07T00:41:02.259Z,9
2022-11-07T00:42:02.254Z,9
2022-11-07T00:43:02.164Z,9
2022-11-07T00:44:02.148Z,9
2022-11-07T00:45:02.055Z,9
2022-11-07T00:46:02.263Z,9
2022-11-07T00:47:02.325Z,9.1
2022-11-07T00:48:02.166Z,9.1
2022-11-07T00:49:02.172Z,9.1
2022-11-07T00:50:02.109Z,9
2022-11-07T00:51:02.109Z,9
2022-11-07T00:52:02.035Z,9
2022-11-07T00:53:01.966Z,9
2022-11-07T00:54:01.946Z,9
2022-11-07T00:55:01.865Z,9
2022-11-07T00:56:01.833Z,9
2022-11-07T00:57:01.809Z,8.9
2022-11-07T00:58:01.723Z,9
2022-11-07T00:59:01.715Z,9
2022-11-07T01:00:01.640Z,9
2022-11-07T01:01:02.081Z,8.9
2022-11-07T01:02:02.184Z,9
2022-11-07T01:03:01.371Z,9
2022-11-07T01:04:02.343Z,8.9
2022-11-07T01:05:02.251Z,8.9
2022-11-07T01:06:02.253Z,8.9
2022-11-07T01:07:02.237Z,8.9
2022-11-07T01:08:02.173Z,8.9
2022-11-07T01:09:02.091Z,8.8
2022-11-07T01:10:02.065Z,8.9
2022-11-07T01:11:01.978Z,8.9
2022-11-07T01:12:01.945Z,8.9
2022-11-07T01:13:01.913Z,8.8
2022-11-07T01:14:01.819Z,8.8
2022-11-07T01:15:01.775Z,8.8
2022-11-07T01:16:01.877Z,8.9
2022-11-07T01:17:01.860Z,8.8
2022-11-07T01:18:01.762Z,8.9
2022-11-07T01:19:01.718Z,8.8
2022-11-07T01:20:01.661Z,8.8
2022-11-07T01:21:01.593Z,8.9
2022-11-07T01:22:01.539Z,8.9
2022-11-07T01:23:01.465Z,8.8
2022-11-07T01:24:01.460Z,8.9
2022-11-07T01:25:01.392Z,8.9
2022-11-07T01:26:02.368Z,8.9
2022-11-07T01:27:02.291Z,8.9
2022-11-07T01:28:02.305Z,8.9
2022-11-07T01:29:02.273Z,8.9
2022-11-07T01:30:02.271Z,8.8
2022-11-07T01:31:01.536Z,8.7
2022-11-07T01:32:01.528Z,8.8
2022-11-07T01:33:01.423Z,8.9
2022-11-07T01:34:01.380Z,8.9
2022-11-07T01:35:01.402Z,8.9
2022-11-07T01:36:05.807Z,8.8
2022-11-07T01:37:02.105Z,8.9
2022-11-07T01:38:02.079Z,8.8
2022-11-07T01:39:01.999Z,8.9
2022-11-07T01:40:01.932Z,8.8
2022-11-07T01:41:01.898Z,8.9
2022-11-07T01:42:01.821Z,9
2022-11-07T01:43:01.766Z,8.9
2022-11-07T01:44:01.733Z,9
2022-11-07T01:45:01.625Z,9
2022-11-07T01:46:01.733Z,9
2022-11-07T01:47:01.705Z,9
2022-11-07T01:48:01.613Z,9
2022-11-07T01:49:01.582Z,9
2022-11-07T01:50:01.471Z,8.9
2022-11-07T01:51:01.473Z,9
2022-11-07T01:52:01.389Z,9
2022-11-07T01:53:02.368Z,9.1
2022-11-07T01:54:02.289Z,9
2022-11-07T01:55:02.313Z,9
2022-11-07T01:56:02.255Z,9
2022-11-07T01:57:02.209Z,9
2022-11-07T01:58:02.148Z,9
2022-11-07T01:59:02.115Z,9
2022-11-07T02:00:02.067Z,8.9
2022-11-07T02:01:02.242Z,9
2022-11-07T02:02:02.401Z,9.1
2022-11-07T02:03:01.660Z,8.9
2022-11-07T02:04:02.022Z,8.9
2022-11-07T02:05:01.967Z,9
2022-11-07T02:06:01.876Z,8.9
2022-11-07T02:07:01.847Z,8.9
2022-11-07T02:08:01.782Z,8.9
2022-11-07T02:09:01.694Z,8.9
2022-11-07T02:10:01.627Z,8.9
2022-11-07T02:11:01.546Z,8.9
2022-11-07T02:12:01.510Z,8.9
2022-11-07T02:13:01.420Z,8.9
2022-11-07T02:14:01.388Z,9
2022-11-07T02:15:01.286Z,9
2022-11-07T02:16:01.602Z,9
2022-11-07T02:17:01.629Z,9.1
2022-11-07T02:18:01.549Z,9
2022-11-07T02:19:01.555Z,9
2022-11-07T02:20:01.447Z,9
2022-11-07T02:21:01.404Z,9
2022-11-07T02:22:01.404Z,9
2022-11-07T02:23:01.475Z,8.9
2022-11-07T02:24:01.403Z,9
2022-11-07T02:25:01.434Z,9
2022-11-07T02:26:01.418Z,9
2022-11-07T02:27:01.538Z,8.9
2022-11-07T02:28:01.386Z,9
2022-11-07T02:29:01.453Z,9
2022-11-07T02:30:02.392Z,9
2022-11-07T02:31:01.619Z,9
2022-11-07T02:32:01.660Z,9
2022-11-07T02:33:01.506Z,8.9
2022-11-07T02:34:01.520Z,9
2022-11-07T02:35:01.346Z,8.9
2022-11-07T02:36:02.345Z,9
2022-11-07T02:37:02.242Z,9.1
2022-11-07T02:38:02.281Z,9.1
2022-11-07T02:39:02.147Z,9
2022-11-07T02:40:02.216Z,9.1
2022-11-07T02:41:02.045Z,9.1
2022-11-07T02:42:02.112Z,9.1
2022-11-07T02:43:01.988Z,9
2022-11-07T02:44:01.878Z,9.1
2022-11-07T02:45:01.939Z,9.1
2022-11-07T02:46:02.082Z,9.1
2022-11-07T02:47:02.090Z,9.1
2022-11-07T02:48:02.158Z,9
2022-11-07T02:49:02.022Z,9.1
2022-11-07T02:50:01.955Z,9.1
2022-11-07T02:51:01.995Z,9
2022-11-07T02:52:01.817Z,9
2022-11-07T02:53:01.771Z,9.1
2022-11-07T02:54:01.833Z,9.1
2022-11-07T02:55:01.657Z,9.1
2022-11-07T02:56:01.709Z,9
2022-11-07T02:57:01.554Z,9.1
2022-11-07T02:58:01.559Z,9
2022-11-07T02:59:01.460Z,9
2022-11-07T03:00:01.481Z,8.9
2022-11-07T03:01:01.530Z,9
2022-11-07T03:02:01.693Z,9.1
2022-11-07T03:03:01.965Z,9.1
2022-11-07T03:04:01.937Z,9.1
2022-11-07T03:05:01.920Z,9.1
2022-11-07T03:06:01.927Z,9.1
2022-11-07T03:07:01.852Z,9
2022-11-07T03:08:01.904Z,9
2022-11-07T03:09:01.753Z,9.1
2022-11-07T03:10:01.684Z,9
2022-11-07T03:11:01.727Z,9.1
2022-11-07T03:12:01.582Z,9.1
2022-11-07T03:13:01.630Z,9.1
2022-11-07T03:14:01.488Z,9
2022-11-07T03:15:01.604Z,9
2022-11-07T03:16:01.655Z,9
2022-11-07T03:17:01.676Z,9.1
2022-11-07T03:18:01.493Z,9.1
2022-11-07T03:19:01.533Z,9.1
2022-11-07T03:20:01.358Z,9
2022-11-07T03:21:02.410Z,9
2022-11-07T03:22:02.379Z,9
2022-11-07T03:23:02.279Z,9.1
2022-11-07T03:24:02.183Z,9.1
2022-11-07T03:25:02.259Z,9
2022-11-07T03:26:02.075Z,9.1
2022-11-07T03:27:02.127Z,9.2
2022-11-07T03:28:02.019Z,9.1
2022-11-07T03:29:01.910Z,9.2
2022-11-07T03:30:01.904Z,9.1
2022-11-07T03:31:01.965Z,9.1
2022-11-07T03:32:01.922Z,9.1
2022-11-07T03:33:01.966Z,9
2022-11-07T03:34:01.811Z,9.1
2022-11-07T03:35:01.763Z,9
2022-11-07T03:36:01.899Z,9
2022-11-07T03:37:01.719Z,8.9
2022-11-07T03:38:01.788Z,9
2022-11-07T03:39:01.641Z,9
2022-11-07T03:40:01.642Z,9
2022-11-07T03:41:01.511Z,8.9
2022-11-07T03:42:01.540Z,9
2022-11-07T03:43:01.390Z,9
2022-11-07T03:44:02.446Z,9
2022-11-07T03:45:02.316Z,9.1
2022-11-07T03:46:01.547Z,9
2022-11-07T03:47:01.582Z,9
2022-11-07T03:48:01.510Z,9
2022-11-07T03:49:01.543Z,9
2022-11-07T03:50:01.355Z,9
2022-11-07T03:51:02.377Z,8.9
2022-11-07T03:52:02.234Z,9
2022-11-07T03:53:02.307Z,9
2022-11-07T03:54:02.176Z,9
2022-11-07T03:55:02.172Z,9
2022-11-07T03:56:02.120Z,9.1
2022-11-07T03:57:02.032Z,9.1
2022-11-07T03:58:02.070Z,9.1
2022-11-07T03:59:01.927Z,9
2022-11-07T04:00:01.831Z,9.1
2022-11-07T04:01:01.914Z,9.1
2022-11-07T04:02:02.119Z,9.1
2022-11-07T04:03:01.398Z,9
2022-11-07T04:04:01.487Z,8.9
2022-11-07T04:05:01.368Z,9
2022-11-07T04:06:02.427Z,8.9
2022-11-07T04:07:02.275Z,9
2022-11-07T04:08:02.329Z,8.9
2022-11-07T04:09:02.198Z,9
2022-11-07T04:10:02.274Z,9
2022-11-07T04:11:02.142Z,9
2022-11-07T04:12:02.150Z,9
2022-11-07T04:13:01.988Z,9
2022-11-07T04:14:01.938Z,9
2022-11-07T04:15:02.002Z,8.9
2022-11-07T04:16:02.031Z,8.9
2022-11-07T04:17:01.962Z,9
2022-11-07T04:18:01.902Z,9
2022-11-07T04:19:01.835Z,9
2022-11-07T04:20:01.734Z,8.9
2022-11-07T04:21:01.757Z,9
2022-11-07T04:22:01.597Z,9
2022-11-07T04:23:01.633Z,9
2022-11-07T04:24:01.476Z,9
2022-11-07T04:25:01.539Z,9
2022-11-07T04:26:01.370Z,9
2022-11-07T04:27:02.434Z,9
2022-11-07T04:28:02.510Z,9.1
2022-11-07T04:29:01.368Z,9
2022-11-07T04:30:01.365Z,9
2022-11-07T04:31:01.673Z,9
2022-11-07T04:32:02.124Z,9
2022-11-07T04:33:02.011Z,9
2022-11-07T04:34:02.064Z,9.1
2022-11-07T04:35:01.911Z,9.1
2022-11-07T04:36:01.802Z,9.1
2022-11-07T04:37:01.759Z,9
2022-11-07T04:38:01.781Z,9.1
2022-11-07T04:39:01.646Z,9.1
2022-11-07T04:40:01.677Z,9
2022-11-07T04:41:01.577Z,9.1
2022-11-07T04:42:01.641Z,9.1
2022-11-07T04:43:01.470Z,9.1
2022-11-07T04:44:01.723Z,9.1
2022-11-07T04:45:01.541Z,9.1
2022-11-07T04:46:01.593Z,9.1
2022-11-07T04:47:01.625Z,9.1
2022-11-07T04:48:01.457Z,9.1
2022-11-07T04:49:01.498Z,9.2
2022-11-07T04:50:02.414Z,9.2
2022-11-07T04:51:02.333Z,9.2
2022-11-07T04:52:02.374Z,9.1
2022-11-07T04:53:02.232Z,9.2
2022-11-07T04:54:02.225Z,9.2
2022-11-07T04:55:02.113Z,9.2
2022-11-07T04:56:02.171Z,9.2
2022-11-07T04:57:02.051Z,9.2
2022-11-07T04:58:01.954Z,9.2
2022-11-07T04:59:01.993Z,9.3
2022-11-07T05:00:01.837Z,9.2
2022-11-07T05:01:02.024Z,9.1
2022-11-07T05:02:02.199Z,9.2
2022-11-07T05:03:01.512Z,9.1
2022-11-07T05:04:01.586Z,9.2
2022-11-07T05:05:01.476Z,9.2
2022-11-07T05:06:01.514Z,9.2
2022-11-07T05:07:01.394Z,9.3
2022-11-07T05:08:01.519Z,9.3
2022-11-07T05:09:01.436Z,9.2
2022-11-07T05:10:01.544Z,9.2
2022-11-07T05:11:01.390Z,9.3
2022-11-07T05:12:01.513Z,9.2
2022-11-07T05:13:01.352Z,9.2
2022-11-07T05:14:02.502Z,9.1
2022-11-07T05:15:02.306Z,9.2
2022-11-07T05:16:01.420Z,9.2
2022-11-07T05:17:01.455Z,9.2
2022-11-07T05:18:02.386Z,9.2
2022-11-07T05:19:02.506Z,9.2
2022-11-07T05:20:02.427Z,9.2
2022-11-07T05:21:02.286Z,9.2
2022-11-07T05:22:01.463Z,9.2
2022-11-07T05:23:02.443Z,9.2
2022-11-07T05:24:02.258Z,9.2
2022-11-07T05:25:02.317Z,9.3
2022-11-07T05:26:02.158Z,9.3
2022-11-07T05:27:02.207Z,9.3
2022-11-07T05:28:02.053Z,9.2
2022-11-07T05:29:02.093Z,9.3
2022-11-07T05:30:01.896Z,9.3
2022-11-07T05:31:02.054Z,9.3
2022-11-07T05:32:02.106Z,9.3
2022-11-07T05:33:01.941Z,9.3
2022-11-07T05:34:01.879Z,9.3
2022-11-07T05:35:01.891Z,9.3
2022-11-07T05:36:01.777Z,9.3
2022-11-07T05:37:01.743Z,9.4
2022-11-07T05:38:01.739Z,9.4
2022-11-07T05:39:01.638Z,9.3
2022-11-07T05:40:01.699Z,9.3
2022-11-07T05:41:01.503Z,9.3
2022-11-07T05:42:01.879Z,9.3
2022-11-07T05:43:01.933Z,9.2
2022-11-07T05:44:01.762Z,9.2
2022-11-07T05:45:01.713Z,9.3
2022-11-07T05:46:01.724Z,9.3
2022-11-07T05:47:01.777Z,9.3
2022-11-07T05:48:01.669Z,9.2
2022-11-07T05:49:01.740Z,9.3
2022-11-07T05:50:01.539Z,9.3
2022-11-07T05:51:01.592Z,9.3
2022-11-07T05:52:01.440Z,9.3
2022-11-07T05:53:01.559Z,9.3
2022-11-07T05:54:01.643Z,9.2
2022-11-07T05:55:01.602Z,9.3
2022-11-07T05:56:01.514Z,9.2
2022-11-07T05:57:01.547Z,9.2
2022-11-07T05:58:06.752Z,9.1
2022-11-07T05:59:01.999Z,9.2
2022-11-07T06:00:02.009Z,9.2
2022-11-07T06:01:01.967Z,9.2
2022-11-07T06:02:01.956Z,9.2
2022-11-07T06:03:01.484Z,9.2
2022-11-07T06:04:01.558Z,9.2
2022-11-07T06:05:01.606Z,9.2
2022-11-07T06:06:01.437Z,9.2
2022-11-07T06:07:01.466Z,9.3
2022-11-07T06:08:02.387Z,9.2
2022-11-07T06:09:02.294Z,9.2
2022-11-07T06:10:02.368Z,9.2
2022-11-07T06:11:02.234Z,9.1
2022-11-07T06:12:02.270Z,9.2
2022-11-07T06:13:02.132Z,9.2
2022-11-07T06:14:02.156Z,9.2
2022-11-07T06:15:01.979Z,9.3
2022-11-07T06:16:02.025Z,9.2
2022-11-07T06:17:02.072Z,9.2
2022-11-07T06:18:01.891Z,9.2
2022-11-07T06:19:01.812Z,9.2
2022-11-07T06:20:01.812Z,9.3
2022-11-07T06:21:01.739Z,9.3
2022-11-07T06:22:01.660Z,9.4
2022-11-07T06:23:01.708Z,9.3
2022-11-07T06:24:01.538Z,9.3
2022-11-07T06:25:01.527Z,9.3
2022-11-07T06:26:02.040Z,9.3
2022-11-07T06:27:01.980Z,9.3
2022-11-07T06:28:01.968Z,9.2
2022-11-07T06:29:01.841Z,9.3
2022-11-07T06:30:01.782Z,9.3
2022-11-07T06:31:01.751Z,9.3
2022-11-07T06:32:01.804Z,9.3
2022-11-07T06:33:01.647Z,9.4
2022-11-07T06:34:01.656Z,9.3
2022-11-07T06:35:01.532Z,9.3
2022-11-07T06:36:01.578Z,9.4
2022-11-07T06:37:03.283Z,9.3
2022-11-07T06:38:01.443Z,9.3
2022-11-07T06:39:01.484Z,9.4
2022-11-07T06:40:01.344Z,9.4
2022-11-07T06:41:02.418Z,9.4
2022-11-07T06:42:02.259Z,9.4
2022-11-07T06:43:02.324Z,9.4
2022-11-07T06:44:02.160Z,9.5
2022-11-07T06:45:02.237Z,9.5
2022-11-07T06:46:02.154Z,9.4
2022-11-07T06:47:02.213Z,9.5
2022-11-07T06:48:02.069Z,9.5
2022-11-07T06:49:02.128Z,9.5
2022-11-07T06:50:02.013Z,9.5
2022-11-07T06:51:01.938Z,9.5
2022-11-07T06:52:01.955Z,9.5
2022-11-07T06:53:01.804Z,9.5
2022-11-07T06:54:01.761Z,9.5
2022-11-07T06:55:01.843Z,9.6
2022-11-07T06:56:01.682Z,9.5
2022-11-07T06:57:01.753Z,9.5
2022-11-07T06:58:01.584Z,9.6
2022-11-07T06:59:01.634Z,9.6
2022-11-07T07:00:01.559Z,9.6
2022-11-07T07:01:02.310Z,9.6
2022-11-07T07:02:01.525Z,9.6
2022-11-07T07:03:01.491Z,9.6
2022-11-07T07:04:01.800Z,9.6
2022-11-07T07:05:01.668Z,9.6
2022-11-07T07:06:01.719Z,9.7
2022-11-07T07:07:01.557Z,9.7
2022-11-07T07:08:01.606Z,9.7
2022-11-07T07:09:01.435Z,9.7
2022-11-07T07:10:01.438Z,9.8
2022-11-07T07:11:02.384Z,9.8
2022-11-07T07:12:02.247Z,9.8
2022-11-07T07:13:02.338Z,9.8
2022-11-07T07:14:02.673Z,9.7
2022-11-07T07:15:01.589Z,9.8
2022-11-07T07:16:01.338Z,9.9
2022-11-07T07:17:01.592Z,9.8
2022-11-07T07:18:01.407Z,9.8
2022-11-07T07:19:01.423Z,9.9
2022-11-07T07:20:02.347Z,10
2022-11-07T07:21:02.256Z,9.9
2022-11-07T07:22:02.286Z,9.8
2022-11-07T07:23:05.647Z,9.8
2022-11-07T07:24:01.890Z,9.9
2022-11-07T07:25:01.946Z,10
2022-11-07T07:26:01.758Z,10
2022-11-07T07:27:01.711Z,10
2022-11-07T07:28:01.727Z,10
2022-11-07T07:29:01.578Z,9.9
2022-11-07T07:30:01.582Z,9.9
2022-11-07T07:31:02.409Z,9.9
2022-11-07T07:32:02.284Z,9.9
2022-11-07T07:33:02.408Z,10
2022-11-07T07:34:02.268Z,9.9
2022-11-07T07:35:02.293Z,10
2022-11-07T07:36:02.154Z,10
2022-11-07T07:37:02.206Z,10
2022-11-07T07:38:02.041Z,9.9
2022-11-07T07:39:02.082Z,10
2022-11-07T07:40:01.926Z,10
2022-11-07T07:41:01.890Z,10
2022-11-07T07:42:01.921Z,9.9
2022-11-07T07:43:01.781Z,9.9
2022-11-07T07:44:01.699Z,9.9
2022-11-07T07:45:01.752Z,10
2022-11-07T07:46:01.679Z,10
2022-11-07T07:47:01.708Z,10
2022-11-07T07:48:02.311Z,9.9
2022-11-07T07:49:01.351Z,10.1
2022-11-07T07:50:01.418Z,10
2022-11-07T07:51:02.372Z,10
2022-11-07T07:52:02.221Z,10.1
2022-11-07T07:53:06.298Z,10.1
2022-11-07T07:54:02.130Z,10
2022-11-07T07:55:02.162Z,10.1
2022-11-07T07:56:01.991Z,10.1
2022-11-07T07:57:01.954Z,10.1
2022-11-07T07:58:01.988Z,10.1
2022-11-07T07:59:01.819Z,10.1
2022-11-07T08:00:01.773Z,10.1
2022-11-07T08:01:01.848Z,10.2
2022-11-07T08:02:02.371Z,10.1
2022-11-07T08:03:01.583Z,10.1
2022-11-07T08:04:02.461Z,10.1
2022-11-07T08:05:02.011Z,10.1
2022-11-07T08:06:01.960Z,10.1
2022-11-07T08:07:01.998Z,10.1
2022-11-07T08:08:01.960Z,10.2
2022-11-07T08:09:01.820Z,10.2
2022-11-07T08:10:27.510Z,10.2
2022-11-07T08:11:01.744Z,10.2
2022-11-07T08:12:01.695Z,10.2
2022-11-07T08:13:01.746Z,10.2
2022-11-07T08:14:01.963Z,10.3
2022-11-07T08:15:01.994Z,10.2
2022-11-07T08:16:02.267Z,10.2
2022-11-07T08:17:02.373Z,10.3
2022-11-07T08:18:02.203Z,10.2
2022-11-07T08:19:02.247Z,10.2
2022-11-07T08:20:02.116Z,10.1
2022-11-07T08:21:02.173Z,10.2
2022-11-07T08:22:02.028Z,10.2
2022-11-07T08:23:01.946Z,10.1
2022-11-07T08:24:01.990Z,10.1
2022-11-07T08:25:01.932Z,10.2
2022-11-07T08:26:01.783Z,10.1
2022-11-07T08:27:01.822Z,10.2
2022-11-07T08:28:01.660Z,10.2
2022-11-07T08:29:01.683Z,10.3
2022-11-07T08:30:01.516Z,10.2
2022-11-07T08:31:01.796Z,10.3
2022-11-07T08:32:01.829Z,10.1
2022-11-07T08:33:01.669Z,10.1
2022-11-07T08:34:01.721Z,10.1
2022-11-07T08:35:01.711Z,10.2
2022-11-07T08:36:01.732Z,10.1
2022-11-07T08:37:01.603Z,10.2
2022-11-07T08:38:01.645Z,10.2
2022-11-07T08:39:01.692Z,10.2
2022-11-07T08:40:01.472Z,10.1
2022-11-07T08:41:01.487Z,10
2022-11-07T08:42:01.413Z,10
2022-11-07T08:43:01.527Z,9.9
2022-11-07T08:44:01.331Z,10.1
2022-11-07T08:45:01.452Z,10.1
2022-11-07T08:46:01.581Z,10.1
2022-11-07T08:47:05.822Z,9.9
2022-11-07T08:48:01.452Z,10
2022-11-07T08:49:01.529Z,10.1
2022-11-07T08:50:01.327Z,10.1
2022-11-07T08:51:02.373Z,10
2022-11-07T08:52:02.246Z,10.1
2022-11-07T08:53:02.910Z,10
2022-11-07T08:54:02.094Z,10.1
2022-11-07T08:55:02.499Z,10
2022-11-07T08:56:01.359Z,10
2022-11-07T08:57:02.388Z,10
2022-11-07T08:58:02.280Z,10
2022-11-07T08:59:02.354Z,10
2022-11-07T09:00:02.229Z,10
2022-11-07T09:01:01.494Z,10.1
2022-11-07T09:02:39.306Z,10
2022-11-07T09:03:31.107Z,10
2022-11-07T09:04:01.803Z,10.1
2022-11-07T09:05:02.280Z,10.2
2022-11-07T09:06:02.108Z,10.2
2022-11-07T09:07:02.154Z,10.2
2022-11-07T09:08:02.001Z,10.2
2022-11-07T09:09:01.959Z,10.3
2022-11-07T09:10:02.018Z,10.2
2022-11-07T09:11:01.889Z,10.3
2022-11-07T09:12:01.815Z,10.2
2022-11-07T09:13:01.835Z,10.2
2022-11-07T09:14:01.672Z,10.3
2022-11-07T09:15:01.696Z,10.2
2022-11-07T09:16:01.762Z,10.2
2022-11-07T09:17:01.678Z,10.4
2022-11-07T09:18:01.717Z,10.3
2022-11-07T09:19:01.533Z,10.3
2022-11-07T09:20:01.548Z,10.4
2022-11-07T09:21:01.413Z,10.5
2022-11-07T09:22:01.474Z,10.5
2022-11-07T09:23:01.374Z,10.4
2022-11-07T09:24:02.454Z,10.5
2022-11-07T09:25:02.308Z,10.4
2022-11-07T09:26:02.369Z,10.5
2022-11-07T09:27:02.225Z,10.5
2022-11-07T09:28:02.274Z,10.4
2022-11-07T09:29:02.138Z,10.4
2022-11-07T09:30:02.828Z,10.5
2022-11-07T09:31:02.071Z,10.4
2022-11-07T09:32:12.097Z,10.4
2022-11-07T09:34:02.135Z,10.4
2022-11-07T09:35:04.625Z,10.4
2022-11-07T09:36:01.963Z,10.4
2022-11-07T09:37:02.334Z,10.4
2022-11-07T09:38:02.346Z,10.4
2022-11-07T09:39:02.233Z,10.4
2022-11-07T09:40:02.262Z,10.4
2022-11-07T09:41:02.142Z,10.5
2022-11-07T09:42:02.230Z,10.5
2022-11-07T09:43:02.074Z,10.5
2022-11-07T09:44:04.574Z,10.5
2022-11-07T09:45:01.784Z,10.5
2022-11-07T09:46:02.062Z,10.6
2022-11-07T09:47:02.119Z,10.6
2022-11-07T09:48:01.944Z,10.4
2022-11-07T09:49:01.902Z,10.4
2022-11-07T09:50:01.896Z,10.4
2022-11-07T09:51:01.785Z,10.5
2022-11-07T09:52:01.727Z,10.6
2022-11-07T09:53:01.779Z,10.5
2022-11-07T09:54:01.700Z,10.5
2022-11-07T09:55:01.693Z,10.5
2022-11-07T09:56:01.560Z,10.6
2022-11-07T09:57:01.595Z,10.5
2022-11-07T09:58:01.442Z,10.6
2022-11-07T09:59:01.473Z,10.6
2022-11-07T10:00:01.328Z,10.5
2022-11-07T10:01:01.468Z,10.7
2022-11-07T10:02:01.654Z,10.8
2022-11-07T10:03:01.678Z,10.9
2022-11-07T10:04:23.977Z,10.8
2022-11-07T10:05:01.666Z,10.8
2022-11-07T10:06:01.834Z,10.7
2022-11-07T10:07:01.859Z,10.7
2022-11-07T10:08:01.704Z,10.9
2022-11-07T10:09:01.737Z,10.9
2022-11-07T10:10:01.631Z,10.8
2022-11-07T10:11:01.653Z,11
2022-11-07T10:12:01.587Z,11
2022-11-07T10:13:01.612Z,11.1
2022-11-07T10:14:01.466Z,11.1
2022-11-07T10:15:01.565Z,11.3
2022-11-07T10:16:02.397Z,11.4
2022-11-07T10:17:02.257Z,11.6
2022-11-07T10:18:02.244Z,11.2
2022-11-07T10:19:02.121Z,11.2
2022-11-07T10:20:02.170Z,11.4
2022-11-07T10:21:30.897Z,11.3
2022-11-07T10:22:01.799Z,11.5
2022-11-07T10:23:01.941Z,11.4
2022-11-07T10:24:01.781Z,11.6
2022-11-07T10:25:01.687Z,11.6
2022-11-07T10:26:01.704Z,11.4
2022-11-07T10:27:01.557Z,11.6
2022-11-07T10:28:01.600Z,12
2022-11-07T10:29:01.699Z,11.6
2022-11-07T10:30:01.752Z,11.7
2022-11-07T10:31:01.740Z,11.6
2022-11-07T10:32:01.674Z,11.6
2022-11-07T10:33:01.811Z,11.5
2022-11-07T10:34:01.661Z,12.1
2022-11-07T10:35:01.659Z,12.1
2022-11-07T10:36:01.505Z,12.1
2022-11-07T10:37:01.571Z,12.1
2022-11-07T10:38:01.393Z,12.2
2022-11-07T10:39:01.437Z,12.5
2022-11-07T10:40:02.392Z,12.4
2022-11-07T10:41:02.178Z,12.8
2022-11-07T10:42:02.242Z,12.8
2022-11-07T10:43:02.094Z,12.6
2022-11-07T10:44:02.162Z,12.5
2022-11-07T10:45:01.995Z,12.6
2022-11-07T10:46:01.701Z,12.6
2022-11-07T10:47:01.865Z,13.6
2022-11-07T10:48:01.708Z,13.8
2022-11-07T10:49:01.748Z,13.8
2022-11-07T10:50:01.533Z,13.9
2022-11-07T10:51:01.589Z,13.7
2022-11-07T10:52:01.762Z,13.8
2022-11-07T10:53:01.762Z,13.6
2022-11-07T10:54:01.808Z,14
2022-11-07T10:55:01.650Z,13.7
2022-11-07T10:56:01.687Z,13.8
2022-11-07T10:57:01.551Z,13.9
2022-11-07T10:58:01.575Z,14.3
2022-11-07T10:59:01.438Z,14
2022-11-07T11:00:01.493Z,14.1
2022-11-07T11:01:01.427Z,14.1
2022-11-07T11:02:01.557Z,14.2
2022-11-07T11:03:01.580Z,14.6
2022-11-07T11:04:01.641Z,14.8
2022-11-07T11:05:01.633Z,14.9
2022-11-07T11:06:01.737Z,14.5
2022-11-07T11:07:01.609Z,14.8
2022-11-07T11:08:01.669Z,14.3
2022-11-07T11:09:01.535Z,14.8
2022-11-07T11:10:01.545Z,15.3
2022-11-07T11:11:01.375Z,14.4
2022-11-07T11:12:02.409Z,15
2022-11-07T11:13:02.293Z,16.2
2022-11-07T11:14:02.353Z,15.3
2022-11-07T11:15:02.210Z,14.8
2022-11-07T11:16:05.622Z,14.6
2022-11-07T11:17:01.823Z,14
2022-11-07T11:18:01.836Z,14.1
2022-11-07T11:19:01.789Z,14.2
2022-11-07T11:20:01.779Z,13.6
2022-11-07T11:21:01.634Z,13.4
2022-11-07T11:22:03.822Z,14.1
2022-11-07T11:23:01.385Z,14.5
2022-11-07T11:24:01.430Z,15
2022-11-07T11:25:02.410Z,15.4
2022-11-07T11:26:02.224Z,14.8
2022-11-07T11:27:02.289Z,14.6
2022-11-07T11:28:02.166Z,14.9
2022-11-07T11:29:02.238Z,15.3
2022-11-07T11:30:02.092Z,15
2022-11-07T11:31:02.272Z,15.5
2022-11-07T11:32:02.299Z,14.7
2022-11-07T11:33:02.200Z,14.6
2022-11-07T11:34:02.219Z,15.3
2022-11-07T11:35:02.113Z,15.7
2022-11-07T11:36:02.166Z,15.4
2022-11-07T11:37:02.033Z,15.4
2022-11-07T11:38:02.015Z,15.8
2022-11-07T11:39:02.061Z,16.1
2022-11-07T11:40:01.892Z,15.7
2022-11-07T11:41:06.203Z,15.2
2022-11-07T11:42:01.666Z,15.5
2022-11-07T11:43:01.730Z,15.4
2022-11-07T11:44:01.560Z,14.9
2022-11-07T11:45:01.623Z,14.6
2022-11-07T11:46:01.605Z,14.8
2022-11-07T11:47:01.642Z,14.4
2022-11-07T11:48:01.499Z,14.9
2022-11-07T11:49:01.560Z,15.4
2022-11-07T11:50:01.653Z,14.6
2022-11-07T11:51:01.683Z,14.8
2022-11-07T11:52:01.538Z,15.6
2022-11-07T11:53:01.574Z,15.6
2022-11-07T11:54:01.433Z,15.7
2022-11-07T11:55:01.423Z,15.1
2022-11-07T11:56:02.452Z,14.8
2022-11-07T11:57:02.288Z,14.6
2022-11-07T11:58:02.368Z,15
2022-11-07T11:59:02.209Z,15.3
2022-11-07T12:00:02.275Z,15.2
2022-11-07T12:01:02.190Z,16.5
2022-11-07T12:02:02.296Z,15.9
2022-11-07T12:03:02.313Z,15.3
2022-11-07T12:04:03.760Z,15.5
2022-11-07T12:05:02.089Z,16.1
2022-11-07T12:06:02.157Z,15.8
2022-11-07T12:07:02.080Z,16
2022-11-07T12:08:02.025Z,15.7
2022-11-07T12:09:02.051Z,15.4
2022-11-07T12:10:01.986Z,15.2
2022-11-07T12:11:01.870Z,15
2022-11-07T12:12:01.914Z,15
2022-11-07T12:13:01.765Z,14.5
2022-11-07T12:14:01.704Z,15.3
2022-11-07T12:15:01.741Z,15
2022-11-07T12:16:01.727Z,15.1
2022-11-07T12:17:01.790Z,15.1
2022-11-07T12:18:01.650Z,15.1
2022-11-07T12:19:01.709Z,14.9
2022-11-07T12:20:01.570Z,14.6
2022-11-07T12:21:01.619Z,14.8
2022-11-07T12:22:01.483Z,14.9
2022-11-07T12:23:01.629Z,14.8
2022-11-07T12:24:01.717Z,14.7
2022-11-07T12:25:01.652Z,15
2022-11-07T12:26:01.721Z,15.3
2022-11-07T12:27:01.577Z,15.4
2022-11-07T12:28:01.588Z,14.9
2022-11-07T12:29:01.422Z,15.2
2022-11-07T12:30:01.865Z,15.3
2022-11-07T12:31:01.961Z,16.5
2022-11-07T12:32:02.005Z,15.5
2022-11-07T12:33:01.847Z,16.2
2022-11-07T12:34:01.806Z,16
2022-11-07T12:35:01.837Z,16.5
2022-11-07T12:36:01.768Z,15.8
2022-11-07T12:37:01.692Z,16.1
2022-11-07T12:38:01.822Z,15.4
2022-11-07T12:39:01.648Z,15.6
2022-11-07T12:40:01.731Z,16.4
2022-11-07T12:41:01.608Z,16.1
2022-11-07T12:42:01.685Z,15.9
2022-11-07T12:43:01.535Z,15.6
2022-11-07T12:44:01.580Z,15.4
2022-11-07T12:45:01.379Z,15.6
2022-11-07T12:46:01.592Z,15.7
2022-11-07T12:47:01.739Z,15.7
2022-11-07T12:48:01.574Z,16.4
2022-11-07T12:49:01.653Z,16.4
2022-11-07T12:50:01.526Z,16
2022-11-07T12:51:01.533Z,16.5
2022-11-07T12:52:01.354Z,16.3
2022-11-07T12:53:02.395Z,15.8
2022-11-07T12:54:02.241Z,16.7
2022-11-07T12:55:01.675Z,16.3
2022-11-07T12:56:01.549Z,16.1
2022-11-07T12:57:01.560Z,16.4
2022-11-07T12:58:01.397Z,16.9
2022-11-07T12:59:01.415Z,15.8
2022-11-07T13:00:02.405Z,15.5
2022-11-07T13:01:01.932Z,15.3
2022-11-07T13:02:02.216Z,15.7
2022-11-07T13:03:01.424Z,15.6
2022-11-07T13:04:01.482Z,15.7
2022-11-07T13:05:02.427Z,16
2022-11-07T13:06:02.295Z,16.3
2022-11-07T13:07:02.320Z,16
2022-11-07T13:08:02.198Z,16.1
2022-11-07T13:09:02.262Z,16.2
2022-11-07T13:10:02.158Z,15.5
2022-11-07T13:11:02.205Z,16.3
2022-11-07T13:12:02.054Z,16.7
2022-11-07T13:13:02.102Z,16.3
2022-11-07T13:14:01.960Z,16.2
2022-11-07T13:15:01.923Z,16.1
2022-11-07T13:16:14.868Z,16.6
2022-11-07T13:17:01.926Z,16.1
2022-11-07T13:18:01.740Z,16.1
2022-11-07T13:19:01.704Z,16
2022-11-07T13:20:01.748Z,16.2
2022-11-07T13:21:01.678Z,15.5
2022-11-07T13:22:01.726Z,15
2022-11-07T13:23:01.544Z,14.9
2022-11-07T13:24:01.570Z,15
2022-11-07T13:25:04.511Z,14.6
2022-11-07T13:26:04.174Z,14.5
2022-11-07T13:27:02.199Z,14.2
2022-11-07T13:28:02.289Z,14.3
2022-11-07T13:29:02.159Z,14.4
2022-11-07T13:30:02.230Z,14.7
2022-11-07T13:31:06.652Z,14.2
2022-11-07T13:32:01.718Z,14.1
2022-11-07T13:33:01.728Z,14
2022-11-07T13:34:01.601Z,13.7
2022-11-07T13:35:01.911Z,13.6
2022-11-07T13:36:02.008Z,13.6
2022-11-07T13:37:01.806Z,13.6
2022-11-07T13:38:06.017Z,13.6
2022-11-07T13:39:01.635Z,13.5
2022-11-07T13:40:01.691Z,13.9
2022-11-07T13:41:01.924Z,13.9
2022-11-07T13:42:01.951Z,14.2
2022-11-07T13:43:02.009Z,14.3
2022-11-07T13:44:01.882Z,13.9
2022-11-07T13:45:01.879Z,13.8
2022-11-07T13:46:01.702Z,13.9
2022-11-07T13:47:01.721Z,13.7
2022-11-07T13:48:01.551Z,13.9